createdAt,value
2023-03-06T00:00:01.074Z,16.7
2023-03-06T00:01:01.106Z,16.8
2023-03-06T00:02:01.053Z,16.8
2023-03-06T00:03:01.101Z,16.8
2023-03-06T00:04:00.797Z,16.8
2023-03-06T00:05:00.548Z,16.9
2023-03-06T00:06:00.434Z,16.9
2023-03-06T00:07:00.104Z,17
2023-03-06T00:07:59.898Z,17
2023-03-06T00:08:59.571Z,17
2023-03-06T00:10:01.588Z,16.9
2023-03-06T00:11:01.262Z,16.8
2023-03-06T00:12:01.145Z,16.5
2023-03-06T00:13:01.152Z,16.4
2023-03-06T00:14:01.159Z,16.4
2023-03-06T00:15:01.245Z,16.7
2023-03-06T00:16:01.209Z,16.7
2023-03-06T00:17:01.080Z,16.7
2023-03-06T00:18:01.083Z,16.7
2023-03-06T00:19:01.057Z,16.7
2023-03-06T00:20:01.096Z,16.8
2023-03-06T00:21:01.109Z,16.8
2023-03-06T00:22:01.117Z,16.7
2023-03-06T00:23:01.146Z,16.7
2023-03-06T00:24:01.114Z,17
2023-03-06T00:25:01.350Z,17.1
2023-03-06T00:26:01.141Z,17.3
2023-03-06T00:27:01.043Z,17.3
2023-03-06T00:28:01.137Z,17.2
2023-03-06T00:29:01.157Z,17.2
2023-03-06T00:30:01.151Z,17.4
2023-03-06T00:31:01.169Z,17.5
2023-03-06T00:32:01.766Z,17.6
2023-03-06T00:33:01.781Z,17.6
2023-03-06T00:34:01.768Z,17.7
2023-03-06T00:35:02.435Z,17.8
2023-03-06T00:36:01.847Z,17.7
2023-03-06T00:37:01.115Z,17.8
2023-03-06T00:38:01.117Z,17.8
2023-03-06T00:39:01.121Z,17.9
2023-03-06T00:40:01.128Z,17.9
2023-03-06T00:41:01.155Z,17.9
2023-03-06T00:42:01.140Z,18
2023-03-06T00:43:01.145Z,18
2023-03-06T00:44:01.175Z,18
2023-03-06T00:45:01.171Z,18
2023-03-06T00:46:01.611Z,18
2023-03-06T00:47:01.749Z,18
2023-03-06T00:48:01.751Z,18
2023-03-06T00:49:01.761Z,18
2023-03-06T00:50:01.756Z,18.2
2023-03-06T00:51:01.090Z,18.3
2023-03-06T00:52:01.102Z,18.3
2023-03-06T00:53:01.080Z,18.2
2023-03-06T00:54:01.209Z,18.2
2023-03-06T00:55:01.415Z,18.3
2023-03-06T00:56:01.134Z,18.4
2023-03-06T00:57:01.111Z,18.4
2023-03-06T00:58:01.143Z,18.5
2023-03-06T00:59:01.141Z,18.5
2023-03-06T01:00:01.487Z,18.6
2023-03-06T01:01:00.860Z,18.7
2023-03-06T01:02:01.578Z,18.9
2023-03-06T01:03:01.482Z,18.9
2023-03-06T01:04:01.124Z,19
2023-03-06T01:05:01.078Z,19.2
2023-03-06T01:06:04.070Z,19.3
2023-03-06T01:07:01.772Z,19.6
2023-03-06T01:08:01.106Z,19.6
2023-03-06T01:09:01.094Z,19.6
2023-03-06T01:10:01.105Z,19.6
2023-03-06T01:11:06.684Z,19.9
2023-03-06T01:12:01.711Z,20.2
2023-03-06T01:13:01.428Z,20.8
2023-03-06T01:14:02.140Z,21.2
2023-03-06T01:15:03.149Z,21.4
2023-03-06T01:16:09.342Z,21.4
2023-03-06T01:17:01.451Z,21.7
2023-03-06T01:18:02.585Z,21.8
2023-03-06T01:19:01.160Z,22
2023-03-06T01:20:01.484Z,22.4
2023-03-06T01:21:12.600Z,22.8
2023-03-06T01:22:01.073Z,23.5
2023-03-06T01:23:01.104Z,24.2
2023-03-06T01:24:01.084Z,24.7
2023-03-06T01:25:01.100Z,25
2023-03-06T01:26:15.092Z,25.2
2023-03-06T01:27:01.111Z,25.2
2023-03-06T01:28:01.098Z,25.2
2023-03-06T01:29:01.438Z,25.5
2023-03-06T01:30:02.132Z,25.6
2023-03-06T01:31:01.233Z,25.8
2023-03-06T01:32:01.257Z,26
2023-03-06T01:33:01.134Z,26
2023-03-06T01:34:01.132Z,25.9
2023-03-06T01:35:01.161Z,26.1
2023-03-06T01:36:01.157Z,26.1
2023-03-06T01:37:01.434Z,26.4
2023-03-06T01:38:01.472Z,26.6
2023-03-06T01:39:01.945Z,27
2023-03-06T01:40:01.062Z,27
2023-03-06T01:41:01.054Z,27.3
2023-03-06T01:42:01.051Z,27.7
2023-03-06T01:43:01.106Z,27.9
2023-03-06T01:44:01.128Z,28.4
2023-03-06T01:45:01.112Z,28.6
2023-03-06T01:46:01.904Z,28.5
2023-03-06T01:47:01.252Z,28.5
2023-03-06T01:48:01.130Z,28.8
2023-03-06T01:49:01.147Z,28.8
2023-03-06T01:50:01.185Z,29.1
2023-03-06T01:51:00.947Z,29.1
2023-03-06T01:52:00.779Z,29.1
2023-03-06T01:53:00.397Z,29.3
2023-03-06T01:53:59.996Z,29.5
2023-03-06T01:54:59.644Z,29.6
2023-03-06T01:56:01.257Z,29.7
2023-03-06T01:57:01.896Z,29.8
2023-03-06T01:58:01.378Z,29.9
2023-03-06T01:59:01.107Z,30
2023-03-06T02:00:01.109Z,30.1
2023-03-06T02:01:01.139Z,30.3
2023-03-06T02:02:01.194Z,30.2
2023-03-06T02:03:03.939Z,30.3
2023-03-06T02:04:02.478Z,30.5
2023-03-06T02:05:01.139Z,30.3
2023-03-06T02:06:01.049Z,30.4
2023-03-06T02:07:01.548Z,30.5
2023-03-06T02:08:01.154Z,30.5
2023-03-06T02:09:01.068Z,30.4
2023-03-06T02:10:01.072Z,30.4
2023-03-06T02:11:02.032Z,30.5
2023-03-06T02:12:01.092Z,30.8
2023-03-06T02:13:01.141Z,31.1
2023-03-06T02:14:01.173Z,30.9
2023-03-06T02:15:01.913Z,30.8
2023-03-06T02:16:02.860Z,31.1
2023-03-06T02:17:01.187Z,31.1
2023-03-06T02:18:01.078Z,31.5
2023-03-06T02:19:01.815Z,31.5
2023-03-06T02:20:01.955Z,31.5
2023-03-06T02:21:01.536Z,31.5
2023-03-06T02:22:02.376Z,31.5
2023-03-06T02:23:01.284Z,31.6
2023-03-06T02:24:01.304Z,31.6
2023-03-06T02:25:01.757Z,31.6
2023-03-06T02:26:01.063Z,31.6
2023-03-06T02:27:01.103Z,31.5
2023-03-06T02:28:01.097Z,31.5
2023-03-06T02:29:01.127Z,31.5
2023-03-06T02:30:01.094Z,31.5
2023-03-06T02:31:01.140Z,31.6
2023-03-06T02:32:01.300Z,31.9
2023-03-06T02:33:01.170Z,32.2
2023-03-06T02:34:02.017Z,32.2
2023-03-06T02:35:02.462Z,32.1
2023-03-06T02:36:01.237Z,32.2
2023-03-06T02:37:01.391Z,32.3
2023-03-06T02:38:02.047Z,32.1
2023-03-06T02:39:02.082Z,32.4
2023-03-06T02:40:01.205Z,32.5
2023-03-06T02:41:01.160Z,32.6
2023-03-06T02:42:01.073Z,32.6
2023-03-06T02:43:01.127Z,32.7
2023-03-06T02:44:01.213Z,32.6
2023-03-06T02:45:01.097Z,32.6
2023-03-06T02:46:01.163Z,32.8
2023-03-06T02:47:01.098Z,32.8
2023-03-06T02:48:01.117Z,32.9
2023-03-06T02:49:03.782Z,32.9
2023-03-06T02:50:02.545Z,32.9
2023-03-06T02:51:01.789Z,33
2023-03-06T02:52:01.764Z,33
2023-03-06T02:53:02.277Z,33
2023-03-06T02:54:01.047Z,33
2023-03-06T02:55:01.156Z,33
2023-03-06T02:56:01.144Z,33.1
2023-03-06T02:57:04.541Z,33.2
2023-03-06T02:58:04.910Z,33.2
2023-03-06T02:59:01.702Z,33.3
2023-03-06T03:00:01.077Z,33.2
2023-03-06T03:01:01.103Z,33.2
2023-03-06T03:02:06.313Z,33.2
2023-03-06T03:03:01.815Z,33
2023-03-06T03:04:02.049Z,33.1
2023-03-06T03:05:01.778Z,33
2023-03-06T03:06:01.783Z,32.9
2023-03-06T03:07:10.305Z,33
2023-03-06T03:08:01.459Z,33
2023-03-06T03:09:01.366Z,33.1
2023-03-06T03:10:01.416Z,33.1
2023-03-06T03:11:02.571Z,33.1
2023-03-06T03:12:13.201Z,33
2023-03-06T03:13:01.789Z,33
2023-03-06T03:14:02.602Z,33.1
2023-03-06T03:15:02.501Z,33.1
2023-03-06T03:16:01.107Z,33.1
2023-03-06T03:17:16.131Z,32.9
2023-03-06T03:18:02.105Z,32.9
2023-03-06T03:19:02.256Z,32.8
2023-03-06T03:20:01.216Z,32.8
2023-03-06T03:21:01.119Z,32.8
2023-03-06T03:22:01.177Z,32.7
2023-03-06T03:23:01.978Z,32.6
2023-03-06T03:24:02.434Z,32.4
2023-03-06T03:25:01.149Z,32.3
2023-03-06T03:26:01.466Z,32.3
2023-03-06T03:27:01.964Z,32.3
2023-03-06T03:28:02.775Z,32.3
2023-03-06T03:29:01.146Z,32.1
2023-03-06T03:30:01.163Z,32.1
2023-03-06T03:31:01.931Z,31.8
2023-03-06T03:32:01.154Z,31.7
2023-03-06T03:33:01.096Z,31.7
2023-03-06T03:34:00.662Z,31.7
2023-03-06T03:35:01.160Z,31.7
2023-03-06T03:36:01.496Z,31.7
2023-03-06T03:37:01.488Z,31.7
2023-03-06T03:38:01.148Z,31.7
2023-03-06T03:39:01.872Z,31.7
2023-03-06T03:40:01.822Z,31.6
2023-03-06T03:41:01.153Z,31.7
2023-03-06T03:42:01.864Z,31.7
2023-03-06T03:43:01.788Z,31.7
2023-03-06T03:44:01.435Z,31.2
2023-03-06T03:45:01.169Z,31
2023-03-06T03:46:01.457Z,30.9
2023-03-06T03:47:01.072Z,31
2023-03-06T03:48:01.860Z,30.8
2023-03-06T03:49:01.077Z,30.8
2023-03-06T03:50:00.769Z,30.9
2023-03-06T03:51:00.461Z,30.8
2023-03-06T03:52:00.210Z,30.9
2023-03-06T03:52:59.962Z,30.8
2023-03-06T03:53:59.928Z,30.9
2023-03-06T03:54:59.560Z,30.8
2023-03-06T03:56:01.131Z,30.7
2023-03-06T03:57:01.157Z,30.5
2023-03-06T03:58:08.054Z,30.4
2023-03-06T03:59:00.922Z,30.3
2023-03-06T04:00:01.487Z,30.4
2023-03-06T04:01:01.164Z,30.4
2023-03-06T04:02:01.193Z,30.3
2023-03-06T04:03:01.187Z,30.1
2023-03-06T04:04:01.074Z,30.1
2023-03-06T04:05:01.141Z,29.9
2023-03-06T04:06:01.080Z,30
2023-03-06T04:07:01.096Z,30.1
2023-03-06T04:08:01.218Z,30
2023-03-06T04:09:01.807Z,30.1
2023-03-06T04:10:01.115Z,30.1
2023-03-06T04:11:01.113Z,30.1
2023-03-06T04:12:01.109Z,30
2023-03-06T04:13:01.062Z,30
2023-03-06T04:14:01.066Z,29.9
2023-03-06T04:15:01.229Z,29.9
2023-03-06T04:16:01.477Z,29.8
2023-03-06T04:17:02.968Z,29.8
2023-03-06T04:18:01.168Z,29.9
2023-03-06T04:19:01.062Z,30
2023-03-06T04:20:01.732Z,29.5
2023-03-06T04:21:01.078Z,29.6
2023-03-06T04:22:01.098Z,29.8
2023-03-06T04:23:01.095Z,29.8
2023-03-06T04:24:01.079Z,29.8
2023-03-06T04:25:01.029Z,29.9
2023-03-06T04:26:01.091Z,29.9
2023-03-06T04:27:01.114Z,30
2023-03-06T04:28:01.144Z,29.9
2023-03-06T04:29:01.422Z,29.7
2023-03-06T04:30:08.260Z,31.2
2023-03-06T04:31:02.710Z,31.6
2023-03-06T04:32:01.327Z,31.1
2023-03-06T04:33:02.849Z,30.5
2023-03-06T04:34:01.882Z,30.1
2023-03-06T04:35:01.465Z,29.9
2023-03-06T04:36:01.074Z,29.7
2023-03-06T04:37:01.511Z,29.6
2023-03-06T04:38:05.656Z,29.5
2023-03-06T04:39:01.408Z,29.5
2023-03-06T04:40:01.122Z,29.1
2023-03-06T04:41:01.107Z,28.3
2023-03-06T04:42:01.111Z,28
2023-03-06T04:43:08.478Z,27.8
2023-03-06T04:44:02.366Z,27.8
2023-03-06T04:45:01.205Z,28
2023-03-06T04:46:01.286Z,27.8
2023-03-06T04:47:04.106Z,27.7
2023-03-06T04:48:11.421Z,27.4
2023-03-06T04:49:01.537Z,27.5
2023-03-06T04:50:02.116Z,27.5
2023-03-06T04:51:01.173Z,27.6
2023-03-06T04:52:01.082Z,27.6
2023-03-06T04:53:14.117Z,27.4
2023-03-06T04:54:01.062Z,27.4
2023-03-06T04:55:01.085Z,27.3
2023-03-06T04:56:01.238Z,27.3
2023-03-06T04:57:01.787Z,27.1
2023-03-06T04:58:16.078Z,27
2023-03-06T04:59:02.113Z,26.9
2023-03-06T05:00:01.254Z,26.7
2023-03-06T05:01:02.115Z,26.6
2023-03-06T05:02:01.156Z,26.4
2023-03-06T05:03:01.981Z,26.3
2023-03-06T05:04:00.749Z,26.1
2023-03-06T05:05:01.177Z,25.9
2023-03-06T05:06:01.456Z,25.7
2023-03-06T05:07:01.443Z,25.6
2023-03-06T05:08:01.320Z,25.8
2023-03-06T05:09:02.265Z,25.8
2023-03-06T05:10:01.904Z,25.6
2023-03-06T05:11:02.483Z,25.6
2023-03-06T05:12:02.661Z,25.6
2023-03-06T05:13:01.725Z,25.6
2023-03-06T05:14:01.447Z,25.6
2023-03-06T05:15:01.480Z,25.6
2023-03-06T05:16:02.134Z,25.6
2023-03-06T05:17:01.223Z,25.6
2023-03-06T05:18:01.283Z,25.6
2023-03-06T05:19:01.896Z,25.6
2023-03-06T05:20:01.142Z,25.6
2023-03-06T05:21:01.169Z,25.5
2023-03-06T05:22:01.137Z,25.2
2023-03-06T05:23:01.163Z,25.2
2023-03-06T05:24:01.321Z,25.2
2023-03-06T05:25:01.339Z,25
2023-03-06T05:26:01.468Z,24.9
2023-03-06T05:27:01.454Z,24.9
2023-03-06T05:28:01.109Z,24.7
2023-03-06T05:29:01.244Z,24.6
2023-03-06T05:30:01.093Z,24.7
2023-03-06T05:31:03.372Z,24.6
2023-03-06T05:32:01.323Z,24.6
2023-03-06T05:33:01.117Z,24.4
2023-03-06T05:34:01.234Z,24.4
2023-03-06T05:35:02.117Z,24.2
2023-03-06T05:36:02.258Z,24.3
2023-03-06T05:37:01.332Z,24.4
2023-03-06T05:38:02.081Z,24.4
2023-03-06T05:39:01.187Z,24.3
2023-03-06T05:40:00.885Z,24.2
2023-03-06T05:41:00.640Z,24.3
2023-03-06T05:42:00.368Z,24.3
2023-03-06T05:43:00.154Z,24.4
2023-03-06T05:43:59.900Z,24.5
2023-03-06T05:44:59.546Z,24.4
2023-03-06T05:46:02.265Z,24.5
2023-03-06T05:47:01.099Z,24.7
2023-03-06T05:48:00.805Z,24.6
2023-03-06T05:49:00.566Z,24.5
2023-03-06T05:50:00.211Z,24.6
2023-03-06T05:50:59.790Z,24.9
2023-03-06T05:52:01.780Z,24.7
2023-03-06T05:53:01.571Z,24.5
2023-03-06T05:54:01.542Z,24.6
2023-03-06T05:55:01.256Z,24.7
2023-03-06T05:56:01.688Z,24.7
2023-03-06T05:57:00.735Z,24.7
2023-03-06T05:58:00.462Z,24.5
2023-03-06T05:59:00.147Z,24.5
2023-03-06T05:59:59.844Z,24.5
2023-03-06T06:01:03.269Z,24.5
2023-03-06T06:02:01.794Z,24.3
2023-03-06T06:03:01.497Z,24.5
2023-03-06T06:04:01.116Z,24.1
2023-03-06T06:05:00.686Z,24.1
2023-03-06T06:06:00.386Z,24
2023-03-06T06:06:59.998Z,23.9
2023-03-06T06:07:59.607Z,23.9
2023-03-06T06:09:01.336Z,23.9
2023-03-06T06:10:03.523Z,23.9
2023-03-06T06:11:01.052Z,24.1
2023-03-06T06:12:01.364Z,24.2
2023-03-06T06:13:01.536Z,24.4
2023-03-06T06:14:01.169Z,24.4
2023-03-06T06:15:01.906Z,24.6
2023-03-06T06:16:01.884Z,24.5
2023-03-06T06:17:01.076Z,24.4
2023-03-06T06:18:01.126Z,24.3
2023-03-06T06:19:01.143Z,24.3
2023-03-06T06:20:00.920Z,24
2023-03-06T06:21:01.479Z,23.6
2023-03-06T06:22:01.230Z,23.6
2023-03-06T06:23:01.121Z,23.6
2023-03-06T06:24:04.165Z,23.6
2023-03-06T06:25:01.237Z,23.7
2023-03-06T06:26:01.299Z,23.3
2023-03-06T06:27:03.773Z,23.2
2023-03-06T06:28:01.569Z,23.3
2023-03-06T06:29:07.711Z,23
2023-03-06T06:30:01.397Z,22.7
2023-03-06T06:31:01.158Z,22.4
2023-03-06T06:32:01.528Z,22.4
2023-03-06T06:33:01.091Z,22.6
2023-03-06T06:34:06.128Z,22.4
2023-03-06T06:35:02.084Z,22.1
2023-03-06T06:36:00.948Z,21.9
2023-03-06T06:37:01.141Z,21.8
2023-03-06T06:38:01.121Z,21.7
2023-03-06T06:39:14.817Z,21.5
2023-03-06T06:40:00.911Z,21.6
2023-03-06T06:41:32.976Z,21.6
2023-03-06T06:42:25.898Z,21.3
2023-03-06T06:43:01.157Z,21
2023-03-06T06:44:01.138Z,21
2023-03-06T06:45:01.208Z,20.4
2023-03-06T06:46:21.109Z,20.7
2023-03-06T06:48:01.304Z,20.5
2023-03-06T06:49:01.082Z,20.7
2023-03-06T06:50:01.118Z,20.9
2023-03-06T06:51:01.103Z,20.7
2023-03-06T06:52:01.155Z,20.7
2023-03-06T06:53:03.784Z,20.3
2023-03-06T06:54:01.113Z,20.3
2023-03-06T06:55:01.117Z,20.4
2023-03-06T06:56:01.048Z,20.1
2023-03-06T06:57:01.133Z,19.8
2023-03-06T06:58:01.363Z,19.8
2023-03-06T06:59:15.740Z,19.6
2023-03-06T07:00:01.099Z,19.2
2023-03-06T07:01:01.065Z,19
2023-03-06T07:02:01.060Z,19.2
2023-03-06T07:03:01.459Z,19.2
2023-03-06T07:04:01.114Z,18.9
2023-03-06T07:05:04.531Z,18.6
2023-03-06T07:06:01.470Z,18.4
2023-03-06T07:07:01.355Z,18.5
2023-03-06T07:08:01.386Z,18.3
2023-03-06T07:09:01.390Z,18.2
2023-03-06T07:10:01.112Z,18.1
2023-03-06T07:11:01.123Z,18.3
2023-03-06T07:12:01.164Z,18.3
2023-03-06T07:13:01.074Z,18.1
2023-03-06T07:14:01.196Z,18.2
2023-03-06T07:15:01.068Z,18.2
2023-03-06T07:16:01.461Z,18.2
2023-03-06T07:17:01.487Z,18
2023-03-06T07:18:01.477Z,18.1
2023-03-06T07:19:01.112Z,18.1
2023-03-06T07:20:01.113Z,18
2023-03-06T07:21:01.541Z,18.1
2023-03-06T07:22:01.076Z,18.3
2023-03-06T07:23:01.084Z,18.3
2023-03-06T07:24:01.211Z,18.3
2023-03-06T07:25:01.463Z,18.4
2023-03-06T07:26:01.054Z,17.7
2023-03-06T07:27:01.055Z,17.5
2023-03-06T07:28:01.212Z,17.5
2023-03-06T07:29:01.179Z,17.7
2023-03-06T07:30:01.860Z,17.8
2023-03-06T07:31:02.639Z,17.7
2023-03-06T07:32:01.435Z,17.9
2023-03-06T07:33:02.284Z,17.9
2023-03-06T07:34:03.777Z,17.9
2023-03-06T07:35:19.026Z,17.8
2023-03-06T07:36:01.490Z,17.7
2023-03-06T07:37:01.093Z,17.6
2023-03-06T07:38:01.093Z,17.5
2023-03-06T07:39:00.776Z,17.4
2023-03-06T07:40:00.362Z,17.6
2023-03-06T07:41:00.119Z,17.5
2023-03-06T07:41:59.861Z,17.3
2023-03-06T07:43:16.954Z,17.1
2023-03-06T07:44:00.547Z,17
2023-03-06T07:45:00.302Z,17.1
2023-03-06T07:46:00.000Z,17
2023-03-06T07:46:59.704Z,16.4
2023-03-06T07:48:01.291Z,16
2023-03-06T07:49:01.150Z,15.9
2023-03-06T07:50:01.085Z,15.9
2023-03-06T07:51:01.176Z,15.7
2023-03-06T07:52:01.185Z,15.9
2023-03-06T07:53:01.212Z,16.1
2023-03-06T07:54:01.474Z,16.2
2023-03-06T07:55:01.101Z,15.9
2023-03-06T07:56:01.125Z,15.3
2023-03-06T07:57:01.106Z,15.3
2023-03-06T07:58:01.099Z,14.9
2023-03-06T07:59:01.130Z,14.9
2023-03-06T08:00:01.140Z,14.9
2023-03-06T08:01:01.007Z,15.1
2023-03-06T08:02:01.534Z,15.3
2023-03-06T08:03:01.195Z,15.3
2023-03-06T08:04:01.209Z,15.3
2023-03-06T08:05:03.836Z,14.9
2023-03-06T08:06:01.870Z,14.5
2023-03-06T08:07:01.174Z,14.6
2023-03-06T08:08:00.566Z,14.6
2023-03-06T08:09:00.260Z,14.5
2023-03-06T08:10:05.408Z,14.7
2023-03-06T08:11:01.443Z,14.5
2023-03-06T08:12:02.107Z,14.3
2023-03-06T08:13:03.486Z,14.6
2023-03-06T08:14:01.195Z,14.7
2023-03-06T08:15:06.925Z,14.9
2023-03-06T08:16:01.582Z,14.6
2023-03-06T08:17:01.128Z,14.6
2023-03-06T08:18:01.143Z,14.3
2023-03-06T08:19:01.165Z,14.3
2023-03-06T08:20:09.806Z,14.5
2023-03-06T08:21:00.955Z,13.8
2023-03-06T08:22:01.166Z,13.9
2023-03-06T08:23:01.167Z,13.7
2023-03-06T08:24:01.133Z,13.6
2023-03-06T08:25:11.874Z,14
2023-03-06T08:26:01.070Z,14.4
2023-03-06T08:27:01.100Z,14.5
2023-03-06T08:28:01.244Z,14.6
2023-03-06T08:29:01.115Z,14.6
2023-03-06T08:30:14.691Z,14.6
2023-03-06T08:31:01.921Z,14.5
2023-03-06T08:32:01.378Z,14.4
2023-03-06T08:33:01.407Z,14.1
2023-03-06T08:34:02.154Z,13.6
2023-03-06T08:35:16.781Z,13.8
2023-03-06T08:36:02.378Z,13.8
2023-03-06T08:37:01.527Z,13.8
2023-03-06T08:38:01.177Z,13.8
2023-03-06T08:39:01.158Z,13.8
2023-03-06T08:40:01.191Z,13.5
2023-03-06T08:41:01.437Z,13.6
2023-03-06T08:42:01.181Z,14.1
2023-03-06T08:43:02.565Z,14.2
2023-03-06T08:44:01.100Z,13.9
2023-03-06T08:45:01.090Z,13.3
2023-03-06T08:46:01.173Z,13.3
2023-03-06T08:47:01.100Z,13.5
2023-03-06T08:48:02.130Z,13.6
2023-03-06T08:49:01.128Z,13.7
2023-03-06T08:50:01.059Z,13.4
2023-03-06T08:51:01.114Z,13.2
2023-03-06T08:52:01.125Z,13.2
2023-03-06T08:53:01.181Z,13.1
2023-03-06T08:54:01.147Z,12.9
2023-03-06T08:55:01.160Z,12.4
2023-03-06T08:56:01.150Z,11.9
2023-03-06T08:57:01.455Z,12
2023-03-06T08:58:01.172Z,12.1
2023-03-06T08:59:01.598Z,12.3
2023-03-06T09:00:01.197Z,12.3
2023-03-06T09:01:02.977Z,12
2023-03-06T09:02:02.090Z,11.7
2023-03-06T09:03:02.066Z,11.5
2023-03-06T09:04:01.150Z,11.6
2023-03-06T09:05:01.148Z,11.1
2023-03-06T09:06:01.266Z,10.8
2023-03-06T09:07:04.037Z,10.6
2023-03-06T09:08:01.122Z,10.6
2023-03-06T09:09:01.124Z,10.6
2023-03-06T09:10:01.157Z,10.6
2023-03-06T09:11:02.173Z,10.6
2023-03-06T09:12:01.464Z,10.6
2023-03-06T09:13:01.420Z,10.7
2023-03-06T09:14:01.373Z,10.7
2023-03-06T09:15:01.374Z,10.7
2023-03-06T09:16:02.748Z,10.7
2023-03-06T09:17:01.085Z,10.6
2023-03-06T09:18:01.175Z,10.1
2023-03-06T09:19:01.139Z,9.5
2023-03-06T09:20:00.814Z,9.4
2023-03-06T09:21:01.087Z,9.4
2023-03-06T09:22:01.082Z,9.5
2023-03-06T09:23:01.315Z,8.9
2023-03-06T09:24:01.485Z,9
2023-03-06T09:25:01.508Z,9
2023-03-06T09:26:01.583Z,9.3
2023-03-06T09:27:02.858Z,9.3
2023-03-06T09:28:10.872Z,9.1
2023-03-06T09:29:01.577Z,9.3
2023-03-06T09:30:01.491Z,9.6
2023-03-06T09:31:01.419Z,9.5
2023-03-06T09:32:01.250Z,9.4
2023-03-06T09:33:01.586Z,9.6
2023-03-06T09:34:01.221Z,9.5
2023-03-06T09:35:04.123Z,9.2
2023-03-06T09:36:01.958Z,9
2023-03-06T09:37:01.097Z,8.9
2023-03-06T09:38:01.114Z,8.8
2023-03-06T09:39:01.209Z,8.3
2023-03-06T09:40:01.127Z,8.1
2023-03-06T09:41:00.838Z,8.4
2023-03-06T09:42:00.520Z,8.4
2023-03-06T09:43:00.217Z,8.5
2023-03-06T09:44:00.176Z,8.2
2023-03-06T09:45:00.269Z,7.8
2023-03-06T09:45:59.985Z,7.7
2023-03-06T09:46:59.630Z,7.5
2023-03-06T09:48:01.875Z,7.5
2023-03-06T09:49:01.784Z,7.6
2023-03-06T09:50:02.142Z,7.5
2023-03-06T09:51:01.576Z,7.5
2023-03-06T09:52:01.106Z,7.5
2023-03-06T09:53:01.301Z,7.4
2023-03-06T09:54:01.230Z,7.1
2023-03-06T09:55:01.549Z,6.5
2023-03-06T09:56:01.111Z,6.1
2023-03-06T09:57:01.126Z,6.2
2023-03-06T09:58:01.613Z,6.1
2023-03-06T09:59:01.159Z,6.4
2023-03-06T10:00:04.022Z,6.2
2023-03-06T10:01:00.940Z,6
2023-03-06T10:02:01.366Z,5.8
2023-03-06T10:03:01.628Z,6
2023-03-06T10:04:01.185Z,6.2
2023-03-06T10:05:00.886Z,6.3
2023-03-06T10:06:02.965Z,5.8
2023-03-06T10:07:01.111Z,5.9
2023-03-06T10:08:01.155Z,5.9
2023-03-06T10:09:01.097Z,6
2023-03-06T10:10:01.132Z,5.5
2023-03-06T10:11:05.995Z,6.3
2023-03-06T10:12:02.543Z,5.9
2023-03-06T10:13:01.279Z,6
2023-03-06T10:14:00.936Z,5.6
2023-03-06T10:15:01.125Z,5.4
2023-03-06T10:16:08.748Z,4.9
2023-03-06T10:17:01.169Z,5.4
2023-03-06T10:18:01.153Z,5.6
2023-03-06T10:19:01.353Z,5.1
2023-03-06T10:20:01.453Z,4.2
2023-03-06T10:21:19.045Z,4.3
2023-03-06T10:22:01.145Z,3.9
2023-03-06T10:23:04.974Z,3.9
2023-03-06T10:24:01.144Z,4.2
2023-03-06T10:25:01.141Z,4.4
2023-03-06T10:26:14.498Z,4.7
2023-03-06T10:27:01.264Z,5.1
2023-03-06T10:28:02.135Z,4.4
2023-03-06T10:29:04.015Z,4.2
2023-03-06T10:30:03.571Z,4.4
2023-03-06T10:31:01.504Z,4.3
2023-03-06T10:32:01.520Z,4.2
2023-03-06T10:33:02.645Z,3.8
2023-03-06T10:34:01.176Z,3.8
2023-03-06T10:35:01.807Z,3.4
2023-03-06T10:36:01.118Z,3.2
2023-03-06T10:37:01.056Z,3.2
2023-03-06T10:38:01.439Z,2.9
2023-03-06T10:39:01.052Z,2.6
2023-03-06T10:40:01.154Z,3.2
2023-03-06T10:41:01.438Z,2.4
2023-03-06T10:42:01.114Z,2.8
2023-03-06T10:43:11.181Z,2.3
2023-03-06T10:44:01.181Z,2.3
2023-03-06T10:45:01.240Z,2.6
2023-03-06T10:46:01.399Z,1.9
2023-03-06T10:47:01.059Z,2.2
2023-03-06T10:48:01.181Z,1.9
2023-03-06T10:49:01.164Z,1.3
2023-03-06T10:50:01.209Z,1.5
2023-03-06T10:51:04.679Z,1.6
2023-03-06T10:52:01.755Z,2.6
2023-03-06T10:53:01.753Z,2.6
2023-03-06T10:54:01.463Z,2.5
2023-03-06T10:55:01.362Z,2.3
2023-03-06T10:56:01.809Z,1.9
2023-03-06T10:57:01.500Z,1.1
2023-03-06T10:58:01.223Z,1.4
2023-03-06T10:59:01.434Z,1.3
2023-03-06T11:00:01.329Z,1
2023-03-06T11:01:01.372Z,1.2
2023-03-06T11:02:01.560Z,1.5
2023-03-06T11:03:01.502Z,1
2023-03-06T11:04:01.391Z,1
2023-03-06T11:05:02.208Z,1
2023-03-06T11:06:01.448Z,1.2
2023-03-06T11:07:02.179Z,1
2023-03-06T11:08:01.182Z,1
2023-03-06T11:09:01.183Z,1
2023-03-06T11:10:01.231Z,1
2023-03-06T11:11:01.409Z,1
2023-03-06T11:12:01.103Z,1
2023-03-06T11:13:02.607Z,1
2023-03-06T11:14:01.113Z,1
2023-03-06T11:15:01.212Z,1
2023-03-06T11:16:01.202Z,1
2023-03-06T11:17:01.059Z,1
2023-03-06T11:18:01.072Z,1
2023-03-06T11:19:01.256Z,1
2023-03-06T11:20:01.538Z,1
2023-03-06T11:21:02.337Z,1
2023-03-06T11:22:02.065Z,1
2023-03-06T11:23:02.093Z,1
2023-03-06T11:24:01.171Z,1
2023-03-06T11:25:01.338Z,1
2023-03-06T11:26:01.380Z,1
2023-03-06T11:27:01.075Z,1
2023-03-06T11:28:01.087Z,1
2023-03-06T11:29:01.497Z,1
2023-03-06T11:30:01.197Z,1
2023-03-06T11:31:02.088Z,1
2023-03-06T11:32:01.883Z,1
2023-03-06T11:33:00.953Z,1
2023-03-06T11:34:01.520Z,1
2023-03-06T11:35:01.698Z,1
2023-03-06T11:36:01.767Z,1
2023-03-06T11:37:01.141Z,1
2023-03-06T11:38:01.156Z,1
2023-03-06T11:39:01.169Z,1
2023-03-06T11:40:01.282Z,1
2023-03-06T11:41:01.367Z,1
2023-03-06T11:42:01.897Z,1
2023-03-06T11:43:02.520Z,1
2023-03-06T11:44:01.094Z,1.2
2023-03-06T11:45:02.901Z,1.8
2023-03-06T11:46:01.535Z,2.1
2023-03-06T11:47:04.077Z,2.5
2023-03-06T11:48:01.783Z,2.7
2023-03-06T11:49:01.155Z,3.1
2023-03-06T11:50:01.133Z,3
2023-03-06T11:51:01.512Z,2.8
2023-03-06T11:52:07.677Z,2.8
2023-03-06T11:53:01.153Z,3
2023-03-06T11:54:01.181Z,3.2
2023-03-06T11:55:01.275Z,3.2
2023-03-06T11:56:01.062Z,2.9
2023-03-06T11:57:09.953Z,2.7
2023-03-06T11:58:01.096Z,3
2023-03-06T11:59:01.128Z,2.9
2023-03-06T12:00:01.632Z,3.6
2023-03-06T12:01:01.309Z,3.8
2023-03-06T12:02:13.611Z,3.5
2023-03-06T12:03:01.103Z,4.1
2023-03-06T12:04:01.467Z,3.8
2023-03-06T12:05:01.308Z,3.8
2023-03-06T12:06:01.113Z,4.4
2023-03-06T12:07:16.769Z,3.8
2023-03-06T12:08:01.157Z,3.7
2023-03-06T12:09:01.154Z,4.8
2023-03-06T12:10:01.151Z,4.6
2023-03-06T12:11:01.169Z,3.9
2023-03-06T12:12:01.179Z,3.9
2023-03-06T12:13:01.670Z,4.2
2023-03-06T12:14:03.938Z,4.1
2023-03-06T12:15:01.187Z,3.7
2023-03-06T12:16:01.105Z,3.2
2023-03-06T12:17:01.052Z,3.7
2023-03-06T12:18:00.163Z,2.9
2023-03-06T12:18:59.878Z,2.4
2023-03-06T12:19:59.560Z,2.3
2023-03-06T12:21:01.688Z,2
2023-03-06T12:22:01.130Z,2.1
2023-03-06T12:23:14.474Z,2
2023-03-06T12:24:01.140Z,2.4
2023-03-06T12:25:01.224Z,2.5
2023-03-06T12:26:01.142Z,3
2023-03-06T12:27:01.279Z,1.4
2023-03-06T12:28:01.255Z,1.4
2023-03-06T12:29:02.084Z,2
2023-03-06T12:30:01.576Z,2.9
2023-03-06T12:31:01.079Z,2.4
2023-03-06T12:32:01.229Z,1.4
2023-03-06T12:33:01.529Z,2
2023-03-06T12:34:01.269Z,2
2023-03-06T12:35:03.559Z,2.1
2023-03-06T12:36:02.015Z,2.4
2023-03-06T12:37:01.125Z,1.2
2023-03-06T12:38:01.667Z,1
2023-03-06T12:39:01.127Z,1
2023-03-06T12:40:01.168Z,1
2023-03-06T12:41:01.391Z,1
2023-03-06T12:42:04.924Z,1
2023-03-06T12:43:02.262Z,1
2023-03-06T12:44:01.053Z,1
2023-03-06T12:45:01.102Z,1
2023-03-06T12:46:01.164Z,1
2023-03-06T12:47:01.133Z,1
2023-03-06T12:48:04.249Z,1
2023-03-06T12:49:01.049Z,1
2023-03-06T12:50:01.095Z,1
2023-03-06T12:51:01.463Z,1
2023-03-06T12:52:01.123Z,1
2023-03-06T12:53:01.152Z,1
2023-03-06T12:54:02.185Z,1
2023-03-06T12:55:01.151Z,1
2023-03-06T12:56:01.526Z,1
2023-03-06T12:57:01.249Z,1
2023-03-06T12:58:01.718Z,1
2023-03-06T12:59:01.054Z,1
2023-03-06T13:00:01.185Z,1
2023-03-06T13:01:04.621Z,1
2023-03-06T13:02:01.568Z,1
2023-03-06T13:03:01.417Z,1
2023-03-06T13:04:01.396Z,1
2023-03-06T13:05:02.039Z,1.1
2023-03-06T13:06:01.206Z,1
2023-03-06T13:07:01.107Z,1.3
2023-03-06T13:08:01.103Z,2.2
2023-03-06T13:09:01.111Z,2.3
2023-03-06T13:10:01.063Z,2.7
2023-03-06T13:11:01.127Z,2.3
2023-03-06T13:12:01.081Z,2.9
2023-03-06T13:13:01.288Z,3.6
2023-03-06T13:14:02.346Z,3.6
2023-03-06T13:15:02.235Z,3.6
2023-03-06T13:16:01.953Z,3.6
2023-03-06T13:17:01.156Z,4.5
2023-03-06T13:18:01.068Z,5.2
2023-03-06T13:19:01.062Z,6.6
2023-03-06T13:20:01.188Z,7.3
2023-03-06T13:21:00.806Z,8.1
2023-03-06T13:22:02.012Z,8.7
2023-03-06T13:23:01.847Z,9.2
2023-03-06T13:24:01.245Z,10.3
2023-03-06T13:25:08.164Z,10.4
2023-03-06T13:26:01.142Z,10.7
2023-03-06T13:27:00.702Z,11
2023-03-06T13:28:03.690Z,11
2023-03-06T13:29:01.428Z,11.7
2023-03-06T13:30:02.074Z,12.4
2023-03-06T13:31:01.180Z,12.6
2023-03-06T13:32:01.249Z,12.8
2023-03-06T13:33:06.585Z,13.2
2023-03-06T13:34:02.482Z,13.5
2023-03-06T13:35:01.266Z,13.9
2023-03-06T13:36:01.181Z,14.2
2023-03-06T13:37:01.161Z,14.1